Time;durP1;ratioP1;P1;durP2;ratioP2;P2;SDS_P1;SDS_P2;PMS_P1;PMS_P2;Temp;Humidity;BMP_temperature;BMP_pressure;BME280_temperature;BME280_humidity;BME280_pressure;Samples;Min_cycle;Max_cycle;Signal;HPM_P1;HPM_P2
2023/05/22 00:04:50;;;;;;;9.27;6.47;;;;;;;;;;10327641;28;20477;-57
2023/05/22 00:09:50;;;;;;;9.30;5.90;;;;;;;;;;10327661;28;20045;-57
2023/05/22 00:14:51;;;;;;;9.15;5.78;;;;;;;;;;10327622;28;20900;-58
2023/05/22 00:19:54;;;;;;;6.88;5.53;;;;;;;;;;10314745;28;20081;-57
2023/05/22 00:24:54;;;;;;;8.93;5.53;;;;;;;;;;10337209;28;20516;-56
2023/05/22 00:29:55;;;;;;;11.95;5.95;;;;;;;;;;10349528;28;20038;-58
2023/05/22 00:34:55;;;;;;;8.45;5.90;;;;;;;;;;10349773;28;20034;-58
2023/05/22 00:39:56;;;;;;;9.27;6.20;;;;;;;;;;10342751;28;20030;-58
2023/05/22 00:44:56;;;;;;;8.97;5.57;;;;;;;;;;10325438;28;20452;-57
2023/05/22 00:49:57;;;;;;;6.88;5.35;;;;;;;;;;10339265;28;20562;-58
2023/05/22 00:54:58;;;;;;;9.50;6.00;;;;;;;;;;10348385;28;20437;-58
2023/05/22 01:00:00;;;;;;;6.43;5.35;;;;;;;;;;10358640;28;20022;-54
2023/05/22 01:05:02;;;;;;;6.60;5.05;;;;;;;;;;10352439;28;20038;-54
2023/05/22 01:10:06;;;;;;;7.72;5.35;;;;;;;;;;10335825;28;20025;-53
2023/05/22 01:15:20;;;;;;;6.18;4.93;;;;;;;;;;10325500;28;20049;-53
2023/05/22 01:20:29;;;;;;;5.97;5.00;;;;;;;;;;10327981;28;20025;-53
2023/05/22 01:25:48;;;;;;;7.80;5.35;;;;;;;;;;10330553;28;20496;-54
2023/05/22 01:30:54;;;;;;;7.13;5.30;;;;;;;;;;10323829;28;20022;-55
2023/05/22 01:35:56;;;;;;;8.10;5.13;;;;;;;;;;10310357;28;20042;-55
2023/05/22 01:40:57;;;;;;;9.70;5.40;;;;;;;;;;10315924;28;20025;-53
2023/05/22 01:45:58;;;;;;;8.10;4.95;;;;;;;;;;10324030;28;20054;-55
2023/05/22 01:51:14;;;;;;;6.47;5.25;;;;;;;;;;10337788;28;20033;-56
2023/05/22 01:56:19;;;;;;;11.32;5.10;;;;;;;;;;10322323;28;20493;-53
2023/05/22 02:01:21;;;;;;;8.40;4.45;;;;;;;;;;10347512;28;20018;-55
2023/05/22 02:06:26;;;;;;;7.07;4.78;;;;;;;;;;10321885;28;20444;-52
2023/05/22 02:11:28;;;;;;;6.00;5.32;;;;;;;;;;10311014;28;20034;-55
2023/05/22 02:16:29;;;;;;;6.07;4.88;;;;;;;;;;10323372;28;20416;-58
2023/05/22 02:21:29;;;;;;;5.15;4.65;;;;;;;;;;10324498;28;20022;-57
2023/05/22 02:26:30;;;;;;;7.47;4.65;;;;;;;;;;10336079;28;20041;-57
2023/05/22 02:31:30;;;;;;;10.68;4.63;;;;;;;;;;10334167;28;20023;-57
2023/05/22 02:36:31;;;;;;;7.15;4.25;;;;;;;;;;10323010;28;20038;-57
2023/05/22 02:41:31;;;;;;;7.07;5.17;;;;;;;;;;10322337;28;20038;-57
2023/05/22 02:46:32;;;;;;;8.70;5.07;;;;;;;;;;10322834;28;20472;-57
2023/05/22 02:51:32;;;;;;;6.63;4.55;;;;;;;;;;10322860;28;20026;-56
2023/05/22 02:56:32;;;;;;;5.73;4.40;;;;;;;;;;10330449;28;20026;-61
2023/05/22 03:01:33;;;;;;;6.27;4.70;;;;;;;;;;10329748;28;20998;-61
2023/05/22 03:06:34;;;;;;;6.85;4.95;;;;;;;;;;10330953;28;20098;-60
2023/05/22 03:11:34;;;;;;;5.35;4.70;;;;;;;;;;10331154;28;20041;-62
2023/05/22 03:16:34;;;;;;;5.93;4.55;;;;;;;;;;10329350;28;20030;-63
2023/05/22 03:21:35;;;;;;;5.28;4.32;;;;;;;;;;10342187;28;20038;-63
2023/05/22 03:26:36;;;;;;;4.57;4.15;;;;;;;;;;10342030;28;20029;-63
2023/05/22 03:31:36;;;;;;;5.28;4.53;;;;;;;;;;10329504;28;20034;-63
2023/05/22 03:36:37;;;;;;;5.10;4.22;;;;;;;;;;10328973;28;20037;-63
2023/05/22 03:41:37;;;;;;;6.63;4.55;;;;;;;;;;10328671;28;20022;-62
2023/05/22 03:46:37;;;;;;;5.70;4.28;;;;;;;;;;10340626;28;20046;-62
2023/05/22 03:51:38;;;;;;;5.60;4.50;;;;;;;;;;10339452;28;20053;-62
2023/05/22 03:56:38;;;;;;;6.10;4.07;;;;;;;;;;10340819;28;20445;-61
2023/05/22 04:01:39;;;;;;;5.75;4.78;;;;;;;;;;10351641;28;20471;-62
2023/05/22 04:06:41;;;;;;;5.47;4.32;;;;;;;;;;10327522;28;20030;-62
2023/05/22 04:11:42;;;;;;;4.85;4.35;;;;;;;;;;10325454;28;20500;-62
2023/05/22 04:16:42;;;;;;;5.60;4.30;;;;;;;;;;10303867;28;20026;-63
2023/05/22 04:21:43;;;;;;;7.17;5.37;;;;;;;;;;10339393;28;20875;-62
2023/05/22 04:26:43;;;;;;;7.18;4.80;;;;;;;;;;10327859;28;20050;-61
2023/05/22 04:31:43;;;;;;;7.22;4.88;;;;;;;;;;10326382;28;20034;-63
2023/05/22 04:36:45;;;;;;;6.17;4.57;;;;;;;;;;10326141;28;20031;-62
2023/05/22 04:41:45;;;;;;;6.68;5.03;;;;;;;;;;10325627;28;20567;-62
2023/05/22 04:46:46;;;;;;;5.75;4.47;;;;;;;;;;10332209;28;20500;-61
2023/05/22 04:51:47;;;;;;;5.43;4.68;;;;;;;;;;10338498;28;20031;-63
2023/05/22 04:56:47;;;;;;;5.50;4.45;;;;;;;;;;10306628;28;20026;-63
2023/05/22 05:01:49;;;;;;;7.00;4.60;;;;;;;;;;10320851;28;20401;-61
2023/05/22 05:06:51;;;;;;;5.10;4.60;;;;;;;;;;10312536;28;20509;-63
2023/05/22 05:11:52;;;;;;;5.65;4.60;;;;;;;;;;10329719;28;20030;-63
2023/05/22 05:16:52;;;;;;;6.83;4.93;;;;;;;;;;10329047;28;20026;-63
2023/05/22 05:21:52;;;;;;;6.22;4.53;;;;;;;;;;10321006;28;21066;-58
2023/05/22 05:26:53;;;;;;;8.57;4.83;;;;;;;;;;10327000;28;20119;-60
2023/05/22 05:31:53;;;;;;;4.20;3.80;;;;;;;;;;10324081;28;20521;-58
2023/05/22 05:36:56;;;;;;;4.73;4.23;;;;;;;;;;10324896;28;21213;-60
2023/05/22 05:41:56;;;;;;;10.60;4.75;;;;;;;;;;10321458;28;20040;-60
2023/05/22 05:46:56;;;;;;;6.30;5.07;;;;;;;;;;10324124;28;20412;-63
2023/05/22 05:51:57;;;;;;;16.05;4.65;;;;;;;;;;10323143;28;20514;-58
2023/05/22 05:56:57;;;;;;;7.35;4.93;;;;;;;;;;10324332;28;20037;-65
2023/05/22 06:01:58;;;;;;;11.30;5.03;;;;;;;;;;10322112;28;20034;-60
2023/05/22 06:07:00;;;;;;;12.57;4.77;;;;;;;;;;10322760;28;20452;-60
2023/05/22 06:12:00;;;;;;;21.02;5.13;;;;;;;;;;10313688;28;20472;-66
2023/05/22 06:17:01;;;;;;;18.27;5.00;;;;;;;;;;10320750;28;20422;-65
2023/05/22 06:22:01;;;;;;;11.30;5.25;;;;;;;;;;10331751;28;20480;-67
2023/05/22 06:27:02;;;;;;;8.48;4.55;;;;;;;;;;10329074;28;20037;-65
2023/05/22 06:32:02;;;;;;;9.18;5.00;;;;;;;;;;10323223;28;20135;-66
2023/05/22 06:37:04;;;;;;;9.98;4.85;;;;;;;;;;10322711;28;20038;-64
2023/05/22 06:42:05;;;;;;;9.75;4.50;;;;;;;;;;10337705;28;20065;-66
2023/05/22 06:47:05;;;;;;;7.88;5.05;;;;;;;;;;10330536;28;20458;-66
2023/05/22 06:52:06;;;;;;;11.02;4.70;;;;;;;;;;10330599;28;20022;-63
2023/05/22 06:57:06;;;;;;;11.70;4.80;;;;;;;;;;10330721;28;20026;-65
2023/05/22 07:02:06;;;;;;;8.70;4.80;;;;;;;;;;10333412;28;20033;-66
2023/05/22 07:07:08;;;;;;;9.37;4.33;;;;;;;;;;10342354;28;20436;-67
2023/05/22 07:12:08;;;;;;;9.43;4.32;;;;;;;;;;10330019;28;20037;-66
2023/05/22 07:17:09;;;;;;;9.07;4.63;;;;;;;;;;10327364;28;20034;-66
2023/05/22 07:22:09;;;;;;;6.47;4.40;;;;;;;;;;10328689;28;20080;-66
2023/05/22 07:27:11;;;;;;;6.43;4.23;;;;;;;;;;10329224;28;20026;-66
2023/05/22 07:32:11;;;;;;;9.20;4.50;;;;;;;;;;10341848;28;20452;-61
2023/05/22 07:37:13;;;;;;;6.17;4.33;;;;;;;;;;10349878;28;20405;-64
2023/05/22 07:42:13;;;;;;;9.23;4.53;;;;;;;;;;10345494;28;20663;-65
2023/05/22 07:47:14;;;;;;;5.82;4.25;;;;;;;;;;10336842;28;20438;-66
2023/05/22 07:52:14;;;;;;;5.90;4.07;;;;;;;;;;10342737;28;20037;-67
2023/05/22 07:57:15;;;;;;;5.00;4.05;;;;;;;;;;10338502;28;20046;-66
2023/05/22 08:02:18;;;;;;;5.65;3.90;;;;;;;;;;10329025;28;20035;-62
2023/05/22 08:07:19;;;;;;;8.30;3.90;;;;;;;;;;10327080;28;20108;-66
2023/05/22 08:12:19;;;;;;;7.40;4.10;;;;;;;;;;10327542;28;20477;-66
2023/05/22 08:17:20;;;;;;;6.50;4.20;;;;;;;;;;10326419;28;20030;-65
2023/05/22 08:22:20;;;;;;;7.33;4.10;;;;;;;;;;10326930;28;20471;-66
2023/05/22 08:27:20;;;;;;;4.40;3.83;;;;;;;;;;10327971;28;21010;-65
2023/05/22 08:32:21;;;;;;;10.77;4.30;;;;;;;;;;10328541;28;20518;-63
2023/05/22 08:37:21;;;;;;;6.83;4.33;;;;;;;;;;10346447;28;20477;-66
2023/05/22 08:42:22;;;;;;;6.67;3.73;;;;;;;;;;10348927;28;20483;-64
2023/05/22 08:47:24;;;;;;;8.50;3.72;;;;;;;;;;10345598;28;20022;-63
2023/05/22 08:52:32;;;;;;;5.53;4.20;;;;;;;;;;10325865;28;20370;-64
2023/05/22 08:57:33;;;;;;;6.85;4.22;;;;;;;;;;10355039;28;20044;-67
2023/05/22 09:02:33;;;;;;;7.10;4.20;;;;;;;;;;10341246;28;20041;-65
2023/05/22 09:07:34;;;;;;;5.75;4.30;;;;;;;;;;10324217;28;20032;-62
2023/05/22 09:12:34;;;;;;;7.07;4.20;;;;;;;;;;10325027;28;20032;-65
2023/05/22 09:17:39;;;;;;;6.13;4.10;;;;;;;;;;10325098;28;20038;-65
2023/05/22 09:22:40;;;;;;;7.78;4.32;;;;;;;;;;10324401;28;20476;-66
2023/05/22 09:27:45;;;;;;;5.23;4.20;;;;;;;;;;10325303;28;20029;-65
2023/05/22 09:32:47;;;;;;;12.45;4.60;;;;;;;;;;10324784;28;20966;-65
2023/05/22 09:37:48;;;;;;;6.35;4.38;;;;;;;;;;10325560;28;20109;-66
2023/05/22 09:42:49;;;;;;;6.70;4.35;;;;;;;;;;10324617;28;20500;-66
2023/05/22 09:47:49;;;;;;;6.07;4.38;;;;;;;;;;10323871;28;20037;-65
2023/05/22 09:52:50;;;;;;;7.97;4.80;;;;;;;;;;10323455;28;20374;-66
2023/05/22 09:57:51;;;;;;;8.40;4.80;;;;;;;;;;10322460;28;20066;-65
2023/05/22 10:03:04;;;;;;;9.07;5.45;;;;;;;;;;10324691;28;20117;-66
2023/05/22 10:08:09;;;;;;;9.73;4.97;;;;;;;;;;10322711;28;20026;-61
2023/05/22 10:13:10;;;;;;;7.95;4.80;;;;;;;;;;10323325;28;20489;-65
2023/05/22 10:18:11;;;;;;;6.03;4.43;;;;;;;;;;10317056;28;20109;-60
2023/05/22 10:23:13;;;;;;;6.47;5.07;;;;;;;;;;10346816;28;20293;-65
2023/05/22 10:28:21;;;;;;;6.32;4.63;;;;;;;;;;10331313;28;20085;-65
2023/05/22 10:33:24;;;;;;;6.32;4.80;;;;;;;;;;10330650;28;20030;-66
2023/05/22 10:38:25;;;;;;;5.80;5.20;;;;;;;;;;10343929;28;20030;-63
2023/05/22 10:43:30;;;;;;;6.23;5.17;;;;;;;;;;10330576;28;20043;-65
2023/05/22 10:48:44;;;;;;;5.82;5.20;;;;;;;;;;10331414;28;20444;-61
2023/05/22 10:53:44;;;;;;;8.07;5.03;;;;;;;;;;10319573;28;20041;-65
2023/05/22 10:59:01;;;;;;;6.72;5.13;;;;;;;;;;10342563;28;20522;-65
2023/05/22 11:04:05;;;;;;;8.82;4.82;;;;;;;;;;10318949;28;20038;-64
2023/05/22 11:09:31;;;;;;;8.68;5.15;;;;;;;;;;10328923;28;20092;-66
2023/05/22 11:14:31;;;;;;;6.10;5.07;;;;;;;;;;10333180;28;20026;-64
2023/05/22 11:19:32;;;;;;;10.10;5.35;;;;;;;;;;10339499;28;20031;-66
2023/05/22 11:24:33;;;;;;;5.90;5.35;;;;;;;;;;10329095;28;20682;-65
2023/05/22 11:29:34;;;;;;;5.72;5.03;;;;;;;;;;10326732;28;20031;-66
2023/05/22 11:34:38;;;;;;;7.00;5.45;;;;;;;;;;10330515;28;20038;-64
2023/05/22 11:39:38;;;;;;;7.10;4.95;;;;;;;;;;10328575;28;20073;-64
2023/05/22 11:44:39;;;;;;;5.83;5.20;;;;;;;;;;10326454;28;20405;-63
2023/05/22 11:49:43;;;;;;;8.68;5.57;;;;;;;;;;10327057;28;20460;-64
2023/05/22 11:54:45;;;;;;;6.18;5.32;;;;;;;;;;10334269;28;20044;-66
2023/05/22 11:59:46;;;;;;;11.05;5.30;;;;;;;;;;10332606;28;20130;-62
2023/05/22 12:04:47;;;;;;;7.43;5.68;;;;;;;;;;10327113;28;20045;-66
2023/05/22 12:09:47;;;;;;;9.23;5.70;;;;;;;;;;10327386;28;20478;-64
2023/05/22 12:14:48;;;;;;;5.88;5.28;;;;;;;;;;10340835;28;20026;-60
2023/05/22 12:19:48;;;;;;;9.55;5.82;;;;;;;;;;10323400;28;20410;-64
2023/05/22 12:24:51;;;;;;;5.93;5.33;;;;;;;;;;10326243;28;20030;-63
2023/05/22 12:29:55;;;;;;;6.47;5.15;;;;;;;;;;10332214;28;20473;-65
2023/05/22 12:34:57;;;;;;;6.13;5.40;;;;;;;;;;10332140;28;20026;-66
2023/05/22 12:39:59;;;;;;;6.50;5.35;;;;;;;;;;10323165;28;20022;-66
2023/05/22 12:45:00;;;;;;;8.43;4.80;;;;;;;;;;10323208;28;20054;-64
2023/05/22 12:50:00;;;;;;;6.53;5.45;;;;;;;;;;10328245;28;20034;-65
2023/05/22 12:55:02;;;;;;;7.18;5.07;;;;;;;;;;10328970;28;20043;-63
2023/05/22 13:00:04;;;;;;;7.57;5.38;;;;;;;;;;10337589;28;20037;-64
2023/05/22 13:05:05;;;;;;;9.10;5.53;;;;;;;;;;10340870;28;20242;-64
2023/05/22 13:10:08;;;;;;;7.53;6.03;;;;;;;;;;10333472;28;20254;-64
2023/05/22 13:15:10;;;;;;;9.15;6.18;;;;;;;;;;10322697;28;20034;-61
2023/05/22 13:20:11;;;;;;;7.05;5.68;;;;;;;;;;10325823;28;20041;-60
2023/05/22 13:25:12;;;;;;;12.00;6.50;;;;;;;;;;10337253;28;20415;-61
2023/05/22 13:30:12;;;;;;;10.68;6.93;;;;;;;;;;10333188;28;20096;-61
2023/05/22 13:35:13;;;;;;;11.63;6.72;;;;;;;;;;10324800;28;20018;-59
2023/05/22 13:40:14;;;;;;;10.83;6.20;;;;;;;;;;10326155;28;20053;-60
2023/05/22 13:45:15;;;;;;;8.77;6.55;;;;;;;;;;10336090;28;20509;-59
2023/05/22 13:50:15;;;;;;;8.40;6.13;;;;;;;;;;10335671;28;20040;-59
2023/05/22 13:55:16;;;;;;;8.43;6.53;;;;;;;;;;10357395;28;20029;-59
2023/05/22 14:00:17;;;;;;;10.48;6.25;;;;;;;;;;10332549;28;20093;-59
2023/05/22 14:05:17;;;;;;;11.38;6.25;;;;;;;;;;10327795;28;20023;-59
2023/05/22 14:10:18;;;;;;;10.05;6.53;;;;;;;;;;10323969;28;20123;-59
2023/05/22 14:15:18;;;;;;;9.00;6.05;;;;;;;;;;10323031;28;20033;-59
2023/05/22 14:20:18;;;;;;;8.70;5.93;;;;;;;;;;10322764;28;20030;-59
2023/05/22 14:25:19;;;;;;;7.97;6.10;;;;;;;;;;10321573;28;21121;-59
2023/05/22 14:30:19;;;;;;;10.80;5.80;;;;;;;;;;10323547;28;20452;-59
2023/05/22 14:35:20;;;;;;;9.00;6.00;;;;;;;;;;10323740;28;20022;-58
2023/05/22 14:40:20;;;;;;;7.13;5.93;;;;;;;;;;10323048;28;20389;-59
2023/05/22 14:45:21;;;;;;;9.77;5.63;;;;;;;;;;10323341;28;20053;-59
2023/05/22 14:50:21;;;;;;;10.00;6.25;;;;;;;;;;10323472;28;20456;-58
2023/05/22 14:55:26;;;;;;;12.07;6.87;;;;;;;;;;10322864;28;20040;-58
2023/05/22 15:00:27;;;;;;;10.75;5.88;;;;;;;;;;10323588;28;20826;-59
2023/05/22 15:05:28;;;;;;;6.85;6.03;;;;;;;;;;10333419;28;20042;-59
2023/05/22 15:10:28;;;;;;;8.82;5.53;;;;;;;;;;10352643;28;20355;-58
2023/05/22 15:15:28;;;;;;;9.82;5.50;;;;;;;;;;10330408;28;20085;-59
2023/05/22 15:20:30;;;;;;;7.15;5.55;;;;;;;;;;10329006;28;20030;-62
2023/05/22 15:25:35;;;;;;;7.80;5.50;;;;;;;;;;10329425;28;20385;-59
2023/05/22 15:30:37;;;;;;;6.32;5.10;;;;;;;;;;10330443;28;20023;-58
2023/05/22 15:35:38;;;;;;;7.10;5.28;;;;;;;;;;10326455;28;20026;-62
2023/05/22 15:40:39;;;;;;;10.52;5.70;;;;;;;;;;10329173;28;20506;-58
2023/05/22 15:45:40;;;;;;;7.63;5.53;;;;;;;;;;10332681;28;20394;-58
2023/05/22 15:50:40;;;;;;;7.22;5.95;;;;;;;;;;10339789;28;20033;-58
2023/05/22 15:55:40;;;;;;;10.27;6.40;;;;;;;;;;10333874;28;20440;-62
2023/05/22 16:00:41;;;;;;;7.17;5.70;;;;;;;;;;10344643;28;20437;-58
2023/05/22 16:05:41;;;;;;;9.35;5.53;;;;;;;;;;10328176;28;20448;-62
2023/05/22 16:10:44;;;;;;;8.40;5.65;;;;;;;;;;10333245;28;20068;-58
2023/05/22 16:15:44;;;;;;;7.75;6.20;;;;;;;;;;10333732;28;20457;-58
2023/05/22 16:20:45;;;;;;;9.63;5.75;;;;;;;;;;10328512;28;20018;-58
2023/05/22 16:25:45;;;;;;;10.40;5.97;;;;;;;;;;10327181;28;20088;-58
2023/05/22 16:30:45;;;;;;;8.63;5.55;;;;;;;;;;10326342;28;20014;-58
2023/05/22 16:35:46;;;;;;;7.73;5.57;;;;;;;;;;10335314;28;20085;-60
2023/05/22 16:40:46;;;;;;;7.83;6.10;;;;;;;;;;10348633;28;20447;-58
2023/05/22 16:45:49;;;;;;;7.83;5.80;;;;;;;;;;10329974;28;20484;-64
2023/05/22 16:50:50;;;;;;;9.27;5.60;;;;;;;;;;10325269;28;20452;-63
2023/05/22 16:55:50;;;;;;;8.40;5.63;;;;;;;;;;10322627;28;20026;-65
2023/05/22 17:00:51;;;;;;;6.78;5.45;;;;;;;;;;10343243;28;20026;-59
2023/05/22 17:05:52;;;;;;;7.50;5.90;;;;;;;;;;10326493;28;20044;-59
2023/05/22 17:10:53;;;;;;;9.07;5.50;;;;;;;;;;10324434;28;20026;-64
2023/05/22 17:15:53;;;;;;;6.82;6.13;;;;;;;;;;10317518;28;20481;-64
2023/05/22 17:20:54;;;;;;;6.68;5.97;;;;;;;;;;10319880;28;20026;-58
2023/05/22 17:25:56;;;;;;;8.52;5.68;;;;;;;;;;10322036;28;20034;-57
2023/05/22 17:30:56;;;;;;;11.63;5.68;;;;;;;;;;10324809;28;20038;-57
2023/05/22 17:35:56;;;;;;;9.15;5.68;;;;;;;;;;10328456;28;20482;-56
2023/05/22 17:41:03;;;;;;;9.70;5.87;;;;;;;;;;10327080;28;20141;-56
2023/05/22 17:46:04;;;;;;;7.22;5.28;;;;;;;;;;10322646;28;20480;-55
2023/05/22 17:51:04;;;;;;;12.15;6.47;;;;;;;;;;10324802;28;20057;-59
2023/05/22 17:56:05;;;;;;;13.05;5.82;;;;;;;;;;10320716;28;20126;-57
2023/05/22 18:01:05;;;;;;;8.57;6.10;;;;;;;;;;10324452;28;20381;-57
2023/05/22 18:06:06;;;;;;;7.32;5.43;;;;;;;;;;10327001;28;20431;-55
2023/05/22 18:11:06;;;;;;;7.88;5.80;;;;;;;;;;10317676;28;20374;-56
2023/05/22 18:16:07;;;;;;;12.27;6.10;;;;;;;;;;10320555;28;20040;-57
2023/05/22 18:21:07;;;;;;;8.35;5.50;;;;;;;;;;10328870;28;20057;-57
2023/05/22 18:26:08;;;;;;;14.95;6.13;;;;;;;;;;10326436;28;20049;-55
2023/05/22 18:31:08;;;;;;;11.13;5.80;;;;;;;;;;10325830;28;20053;-57
2023/05/22 18:36:10;;;;;;;12.23;6.00;;;;;;;;;;10334039;28;20037;-59
2023/05/22 18:41:10;;;;;;;12.48;5.72;;;;;;;;;;10347249;28;20487;-56
2023/05/22 18:46:11;;;;;;;9.30;5.80;;;;;;;;;;10330043;28;20042;-56
2023/05/22 18:51:12;;;;;;;10.95;6.03;;;;;;;;;;10329725;28;20483;-56
2023/05/22 18:56:12;;;;;;;8.60;6.28;;;;;;;;;;10328675;28;20381;-58
2023/05/22 19:01:15;;;;;;;13.18;5.70;;;;;;;;;;10329085;28;20465;-57
2023/05/22 19:06:17;;;;;;;10.50;6.30;;;;;;;;;;10329107;28;20050;-57
2023/05/22 19:11:18;;;;;;;12.93;7.18;;;;;;;;;;10331988;28;20085;-58
2023/05/22 19:16:18;;;;;;;11.35;6.22;;;;;;;;;;10331289;28;20092;-58
2023/05/22 19:21:19;;;;;;;10.10;6.25;;;;;;;;;;10330244;28;20195;-57
2023/05/22 19:26:19;;;;;;;14.00;6.40;;;;;;;;;;10330361;28;20108;-58
2023/05/22 19:31:20;;;;;;;11.27;6.00;;;;;;;;;;10329066;28;20053;-58
2023/05/22 19:36:20;;;;;;;9.82;6.25;;;;;;;;;;10337545;28;20033;-58
2023/05/22 19:41:21;;;;;;;9.30;6.03;;;;;;;;;;10328112;28;20386;-58
2023/05/22 19:46:22;;;;;;;9.02;5.85;;;;;;;;;;10328772;28;20476;-58
2023/05/22 19:51:22;;;;;;;9.50;5.53;;;;;;;;;;10323566;28;20264;-58
2023/05/22 19:56:23;;;;;;;6.55;5.55;;;;;;;;;;10325595;28;20399;-58
2023/05/22 20:01:23;;;;;;;8.00;5.50;;;;;;;;;;10328017;28;20026;-58
2023/05/22 20:06:23;;;;;;;8.00;6.20;;;;;;;;;;10325928;28;20512;-58
2023/05/22 20:11:24;;;;;;;9.95;6.30;;;;;;;;;;10330145;28;20459;-58
2023/05/22 20:16:25;;;;;;;18.77;6.65;;;;;;;;;;10333412;28;20117;-58
2023/05/22 20:21:25;;;;;;;14.32;6.60;;;;;;;;;;10325716;28;20381;-57
2023/05/22 20:26:26;;;;;;;15.33;6.40;;;;;;;;;;10338235;28;20034;-56
2023/05/22 20:31:26;;;;;;;11.75;6.30;;;;;;;;;;10339377;28;20832;-58
2023/05/22 20:36:27;;;;;;;13.13;6.00;;;;;;;;;;10325429;28;20037;-57
2023/05/22 20:41:28;;;;;;;18.17;6.63;;;;;;;;;;10338628;28;20033;-57
2023/05/22 20:46:28;;;;;;;13.88;6.45;;;;;;;;;;10322505;28;20054;-58
2023/05/22 20:51:31;;;;;;;8.10;5.72;;;;;;;;;;10324954;28;20031;-63
2023/05/22 20:56:31;;;;;;;12.82;6.20;;;;;;;;;;10334116;28;20041;-61
2023/05/22 21:01:32;;;;;;;14.45;6.43;;;;;;;;;;10343906;28;20038;-63
2023/05/22 21:06:32;;;;;;;8.95;5.65;;;;;;;;;;10327247;28;20038;-62
2023/05/22 21:11:32;;;;;;;10.67;6.20;;;;;;;;;;10325279;28;20434;-58
2023/05/22 21:16:33;;;;;;;9.87;6.10;;;;;;;;;;10337865;28;20440;-62
2023/05/22 21:21:40;;;;;;;8.00;5.45;;;;;;;;;;10323933;28;20393;-62
2023/05/22 21:26:40;;;;;;;8.27;5.88;;;;;;;;;;10322952;28;20523;-64
2023/05/22 21:31:41;;;;;;;9.67;5.80;;;;;;;;;;10332209;28;20032;-64
2023/05/22 21:36:41;;;;;;;12.33;5.53;;;;;;;;;;10322420;28;20796;-63
2023/05/22 21:41:41;;;;;;;11.45;6.13;;;;;;;;;;10324176;28;20060;-58
2023/05/22 21:46:42;;;;;;;22.80;6.17;;;;;;;;;;10324252;28;20129;-56
2023/05/22 21:51:42;;;;;;;20.33;6.40;;;;;;;;;;10318230;28;20448;-58
2023/05/22 21:56:43;;;;;;;7.20;5.50;;;;;;;;;;10324859;28;20022;-58
2023/05/22 22:01:43;;;;;;;10.90;5.27;;;;;;;;;;10324393;28;20448;-54
2023/05/22 22:06:43;;;;;;;14.07;5.70;;;;;;;;;;10347800;28;20069;-55
2023/05/22 22:11:44;;;;;;;7.97;5.53;;;;;;;;;;10348295;28;20466;-56
2023/05/22 22:16:45;;;;;;;8.90;5.22;;;;;;;;;;10344544;28;20456;-56
2023/05/22 22:21:45;;;;;;;11.02;5.50;;;;;;;;;;10340182;28;20037;-57
2023/05/22 22:26:47;;;;;;;7.70;5.13;;;;;;;;;;10344003;28;20039;-56
2023/05/22 22:31:48;;;;;;;8.35;5.22;;;;;;;;;;10329968;28;20471;-56
2023/05/22 22:36:49;;;;;;;11.55;5.70;;;;;;;;;;10339695;28;20582;-56
2023/05/22 22:41:49;;;;;;;11.18;6.35;;;;;;;;;;10339321;28;20045;-57
2023/05/22 22:46:50;;;;;;;10.77;5.97;;;;;;;;;;10335630;28;20382;-55
2023/05/22 22:51:51;;;;;;;9.52;5.95;;;;;;;;;;10337066;28;20455;-56
2023/05/22 22:56:51;;;;;;;9.70;5.82;;;;;;;;;;10336384;28;20026;-56
2023/05/22 23:01:52;;;;;;;6.97;5.65;;;;;;;;;;10332724;28;20516;-58
2023/05/22 23:06:52;;;;;;;7.38;5.38;;;;;;;;;;10354749;28;20022;-56
2023/05/22 23:11:53;;;;;;;8.93;5.25;;;;;;;;;;10329049;28;20067;-56
2023/05/22 23:16:53;;;;;;;10.52;5.70;;;;;;;;;;10329561;28;20415;-57
2023/05/22 23:21:54;;;;;;;10.82;5.35;;;;;;;;;;10328971;28;20065;-54
2023/05/22 23:26:54;;;;;;;9.88;6.55;;;;;;;;;;10327976;28;20034;-54
2023/05/22 23:31:55;;;;;;;8.70;5.93;;;;;;;;;;10354559;28;20033;-55
2023/05/22 23:36:55;;;;;;;13.63;6.32;;;;;;;;;;10328018;28;20793;-57
2023/05/22 23:41:55;;;;;;;8.50;6.37;;;;;;;;;;10353294;28;20620;-55
2023/05/22 23:46:56;;;;;;;8.20;5.93;;;;;;;;;;10327840;28;20480;-64
2023/05/22 23:51:56;;;;;;;10.90;6.45;;;;;;;;;;10328775;28;20466;-64
2023/05/22 23:56:57;;;;;;;11.70;6.80;;;;;;;;;;10328759;28;20474;-64
